Time;durP1;ratioP1;P1;durP2;ratioP2;P2;SDS_P1;SDS_P2;PMS_P1;PMS_P2;Temp;Humidity;BMP_temperature;BMP_pressure;BME280_temperature;BME280_humidity;BME280_pressure;Samples;Min_cycle;Max_cycle;Signal;HPM_P1;HPM_P2
2023/12/30 00:00:10;;;;;;;1.57;1.13;;;12.50;70.20;11.50;96310.00;;;;4989207;28;20202;-87
2023/12/30 00:02:37;;;;;;;1.07;0.70;;;12.60;70.20;11.60;96304.00;;;;4988381;28;20634;-88
2023/12/30 00:05:06;;;;;;;0.70;0.60;;;12.60;70.20;11.60;96299.00;;;;4981031;28;20669;-88
2023/12/30 00:07:34;;;;;;;1.57;1.10;;;12.60;70.10;11.60;96301.00;;;;4979712;28;20238;-88
2023/12/30 00:10:02;;;;;;;0.73;0.73;;;12.70;70.00;11.60;96294.00;;;;4980539;28;20251;-88
2023/12/30 00:12:30;;;;;;;0.70;0.70;;;12.70;69.80;11.60;96286.00;;;;4981049;28;20602;-88
2023/12/30 00:14:57;;;;;;;0.77;0.77;;;12.70;69.70;11.60;96289.00;;;;4985490;28;20195;-88
2023/12/30 00:17:24;;;;;;;0.93;0.67;;;12.70;69.80;11.60;96291.00;;;;4981027;28;20207;-88
2023/12/30 00:19:53;;;;;;;0.67;0.67;;;12.70;69.60;11.60;96295.00;;;;4981714;28;20203;-89
2023/12/30 00:22:20;;;;;;;0.67;0.67;;;12.60;69.50;11.60;96290.00;;;;4994172;28;20206;-88
2023/12/30 00:24:47;;;;;;;0.73;0.73;;;12.60;69.50;11.50;96290.00;;;;4979441;28;20203;-88
2023/12/30 00:27:16;;;;;;;1.63;0.80;;;12.60;69.50;11.50;96283.00;;;;4976721;28;20211;-88
2023/12/30 00:29:43;;;;;;;1.37;1.00;;;12.60;69.60;11.50;96290.00;;;;4976468;28;20329;-88
2023/12/30 00:32:10;;;;;;;0.70;0.70;;;12.60;69.60;11.50;96288.00;;;;4975584;28;20222;-88
2023/12/30 00:34:37;;;;;;;0.70;0.70;;;12.50;69.50;11.40;96285.00;;;;4976358;28;20243;-88
2023/12/30 00:37:05;;;;;;;0.67;0.67;;;12.50;69.50;11.40;96269.00;;;;4974208;28;20775;-88
2023/12/30 00:39:32;;;;;;;1.30;0.70;;;12.50;69.40;11.30;96260.00;;;;4983920;28;20290;-87
2023/12/30 00:41:59;;;;;;;1.13;0.80;;;12.50;69.30;11.30;96267.00;;;;4980135;28;20764;-88
2023/12/30 00:44:27;;;;;;;1.57;0.77;;;12.40;69.30;11.20;96273.00;;;;4975449;28;20286;-88
2023/12/30 00:46:55;;;;;;;3.37;1.20;;;12.40;69.30;11.20;96273.00;;;;4976474;28;20641;-88
2023/12/30 00:49:22;;;;;;;1.87;0.80;;;12.30;69.30;11.20;96280.00;;;;4976400;28;20294;-88
2023/12/30 00:51:49;;;;;;;2.30;1.23;;;12.30;69.40;11.10;96280.00;;;;4977402;28;20323;-88
2023/12/30 00:54:16;;;;;;;0.87;0.87;;;12.20;69.40;11.10;96276.00;;;;4976493;28;20288;-88
2023/12/30 00:56:43;;;;;;;2.43;1.00;;;12.20;69.40;11.00;96271.00;;;;4978836;28;20297;-88
2023/12/30 00:59:10;;;;;;;0.80;0.70;;;12.20;69.50;11.00;96272.00;;;;4977435;28;20255;-88
2023/12/30 01:01:40;;;;;;;1.47;0.80;;;12.10;69.40;10.90;96280.00;;;;4977831;28;20227;-87
2023/12/30 01:04:08;;;;;;;2.20;0.90;;;12.10;69.40;10.90;96291.00;;;;4976915;28;20230;-88
2023/12/30 01:06:35;;;;;;;5.70;1.03;;;12.00;69.50;10.90;96295.00;;;;4976736;28;20255;-88
2023/12/30 01:09:02;;;;;;;2.70;0.80;;;12.00;69.60;10.80;96292.00;;;;4983880;28;20195;-88
2023/12/30 01:11:29;;;;;;;4.60;0.87;;;12.00;69.70;10.80;96302.00;;;;4976658;28;20227;-88
2023/12/30 01:13:57;;;;;;;4.10;1.10;;;11.90;69.60;10.80;96301.00;;;;4970632;28;20250;-88
2023/12/30 01:16:24;;;;;;;2.17;0.80;;;11.90;69.60;10.70;96304.00;;;;4977324;28;20310;-88
2023/12/30 01:18:52;;;;;;;0.80;0.80;;;11.90;69.50;10.60;96291.00;;;;4981717;28;20203;-87
2023/12/30 01:21:20;;;;;;;1.43;1.03;;;11.80;69.30;10.60;96294.00;;;;4977358;28;20246;-88
2023/12/30 01:23:47;;;;;;;1.43;0.87;;;11.80;69.10;10.50;96296.00;;;;4982207;28;20234;-88
2023/12/30 01:26:14;;;;;;;1.57;0.73;;;11.70;69.10;10.40;96302.00;;;;4974622;28;20226;-87
2023/12/30 01:28:41;;;;;;;2.90;0.80;;;11.70;69.10;10.40;96302.00;;;;4978290;28;20198;-88
2023/12/30 01:31:08;;;;;;;0.57;0.57;;;11.60;69.30;10.30;96305.00;;;;4976298;28;20282;-88
2023/12/30 01:33:36;;;;;;;0.60;0.60;;;11.70;69.70;10.30;96309.00;;;;4977754;28;20231;-88
2023/12/30 01:36:05;;;;;;;2.23;0.80;;;11.50;69.90;10.30;96302.00;;;;4979552;28;20210;-88
2023/12/30 01:38:33;;;;;;;2.77;0.70;;;11.50;70.20;10.30;96308.00;;;;4974336;28;20270;-87
2023/12/30 01:41:00;;;;;;;2.37;0.60;;;11.50;70.40;10.30;96311.00;;;;4981426;28;20200;-88
2023/12/30 01:43:30;;;;;;;0.53;0.53;;;11.40;70.60;10.30;96315.00;;;;4977229;28;20227;-88
2023/12/30 01:46:02;;;;;;;0.70;0.70;;;11.40;70.70;10.20;96319.00;;;;4981468;28;20310;-88
2023/12/30 01:48:33;;;;;;;3.60;0.73;;;11.40;70.80;10.30;96319.00;;;;4981063;28;20204;-88
2023/12/30 01:51:07;;;;;;;0.47;0.47;;;11.40;71.00;10.20;96328.00;;;;4981771;28;20357;-88
2023/12/30 01:53:39;;;;;;;0.60;0.60;;;11.40;71.00;10.20;96326.00;;;;4985463;28;20273;-88
2023/12/30 01:56:07;;;;;;;0.47;0.47;;;11.40;71.10;10.20;96323.00;;;;4975122;28;20243;-88
2023/12/30 01:58:36;;;;;;;2.13;0.60;;;11.40;71.20;10.30;96317.00;;;;4989066;28;20234;-88
2023/12/30 02:01:07;;;;;;;0.63;0.50;;;11.40;71.30;10.20;96322.00;;;;4976366;28;20195;-88
2023/12/30 02:03:35;;;;;;;0.60;0.50;;;11.40;71.40;10.30;96326.00;;;;4984492;28;20204;-87
2023/12/30 02:06:04;;;;;;;0.53;0.53;;;11.40;71.50;10.30;96322.00;;;;4987399;28;20257;-87
2023/12/30 02:08:31;;;;;;;0.50;0.50;;;11.30;71.50;10.30;96328.00;;;;4977782;28;20315;-88
2023/12/30 02:10:59;;;;;;;7.00;0.97;;;11.40;71.50;10.30;96326.00;;;;4984248;28;20218;-87
2023/12/30 02:13:26;;;;;;;0.50;0.50;;;11.40;71.40;10.30;96321.00;;;;4989575;28;20942;-88
2023/12/30 02:15:53;;;;;;;0.60;0.60;;;11.40;71.30;10.30;96317.00;;;;4986914;28;20219;-88
2023/12/30 02:18:20;;;;;;;1.93;0.67;;;11.40;71.10;10.20;96324.00;;;;4987140;28;20262;-87
2023/12/30 02:20:47;;;;;;;0.63;0.50;;;11.40;70.90;10.20;96326.00;;;;4975228;28;20835;-87
2023/12/30 02:23:16;;;;;;;1.37;0.60;;;11.40;70.70;10.20;96328.00;;;;4973276;28;20199;-88
2023/12/30 02:25:43;;;;;;;0.73;0.73;;;11.30;70.50;10.10;96324.00;;;;4975873;28;20242;-88
2023/12/30 02:28:11;;;;;;;3.07;1.00;;;11.30;70.40;10.00;96325.00;;;;4973783;28;20199;-88
2023/12/30 02:30:38;;;;;;;1.77;0.70;;;11.30;70.30;10.00;96322.00;;;;4980387;28;20195;-88
2023/12/30 02:33:06;;;;;;;1.27;0.70;;;11.20;70.20;9.90;96329.00;;;;4978568;28;20772;-88
2023/12/30 02:35:33;;;;;;;0.90;0.90;;;11.20;70.10;9.90;96338.00;;;;4974405;28;20215;-88
2023/12/30 02:38:00;;;;;;;1.30;0.70;;;11.10;70.00;9.90;96334.00;;;;4975283;28;20222;-87
2023/12/30 02:40:29;;;;;;;1.03;0.77;;;11.10;69.90;9.80;96339.00;;;;4975415;28;20294;-88
2023/12/30 02:42:56;;;;;;;4.73;1.00;;;11.00;69.90;9.70;96332.00;;;;4971451;28;20249;-88
2023/12/30 02:45:23;;;;;;;2.77;0.90;;;11.00;70.00;9.70;96327.00;;;;4975503;28;20785;-88
2023/12/30 02:47:50;;;;;;;1.00;0.80;;;10.90;69.90;9.60;96331.00;;;;4974793;28;20324;-88
2023/12/30 02:50:18;;;;;;;0.53;0.53;;;10.90;70.20;9.60;96333.00;;;;4974637;28;20195;-88
2023/12/30 02:52:45;;;;;;;0.60;0.60;;;10.80;70.70;9.60;96334.00;;;;4978305;28;20254;-88
2023/12/30 02:55:12;;;;;;;0.83;0.70;;;10.80;71.10;9.60;96325.00;;;;4976423;28;20281;-88
2023/12/30 02:57:41;;;;;;;1.40;0.60;;;10.80;71.50;9.60;96328.00;;;;4975413;28;20230;-88
2023/12/30 03:00:10;;;;;;;0.67;0.50;;;10.80;71.80;9.60;96321.00;;;;4975414;28;20200;-88
2023/12/30 03:02:37;;;;;;;0.70;0.70;;;10.80;72.00;9.70;96325.00;;;;4976793;28;20203;-88
2023/12/30 03:05:05;;;;;;;1.33;0.70;;;10.80;72.10;9.70;96329.00;;;;4974537;28;20759;-88
2023/12/30 03:07:36;;;;;;;0.70;0.70;;;10.80;72.30;9.70;96329.00;;;;4975208;28;20214;-88
2023/12/30 03:10:04;;;;;;;0.60;0.60;;;10.90;72.50;9.80;96327.00;;;;4975131;28;20191;-88
2023/12/30 03:12:32;;;;;;;1.13;0.70;;;10.90;73.40;9.90;96338.00;;;;4974073;28;20282;-88
2023/12/30 03:15:00;;;;;;;0.60;0.60;;;10.90;72.70;9.90;96344.00;;;;4973218;28;20199;-88
2023/12/30 03:17:28;;;;;;;1.00;0.80;;;11.00;72.80;9.90;96344.00;;;;4982218;28;20199;-87
2023/12/30 03:19:55;;;;;;;1.43;0.63;;;11.10;72.80;10.00;96342.00;;;;4966993;28;20266;-89
2023/12/30 03:22:23;;;;;;;0.97;0.90;;;11.10;72.80;10.10;96350.00;;;;4971964;28;20211;-88
2023/12/30 03:24:50;;;;;;;1.73;0.80;;;11.20;72.70;10.10;96347.00;;;;4975857;28;20207;-88
2023/12/30 03:27:17;;;;;;;0.70;0.70;;;11.20;72.60;10.10;96350.00;;;;4971777;28;20258;-88
2023/12/30 03:29:45;;;;;;;2.73;0.70;;;11.20;72.60;10.20;96348.00;;;;4965170;28;20663;-88
2023/12/30 03:32:13;;;;;;;0.80;0.70;;;11.30;72.50;10.20;96351.00;;;;4974046;28;20230;-88
2023/12/30 03:34:40;;;;;;;0.60;0.60;;;11.30;72.40;10.30;96348.00;;;;4980433;28;20253;-88
2023/12/30 03:37:08;;;;;;;0.53;0.53;;;11.40;72.40;10.40;96342.00;;;;4974584;28;20245;-88
2023/12/30 03:39:35;;;;;;;1.00;0.63;;;11.40;72.30;10.40;96352.00;;;;4974495;28;20227;-88
2023/12/30 03:42:02;;;;;;;0.60;0.60;;;11.50;72.20;10.50;96344.00;;;;4978905;28;20203;-89
2023/12/30 03:44:31;;;;;;;0.43;0.43;;;11.50;72.00;10.50;96343.00;;;;4976175;28;20592;-88
2023/12/30 03:46:58;;;;;;;0.60;0.60;;;11.60;71.90;10.60;96352.00;;;;4974890;28;20242;-89
2023/12/30 03:49:27;;;;;;;0.80;0.80;;;11.60;71.70;10.60;96356.00;;;;4972902;28;20229;-88
2023/12/30 03:51:54;;;;;;;0.53;0.53;;;11.70;71.60;10.60;96353.00;;;;4973653;28;20191;-89
2023/12/30 03:54:21;;;;;;;0.60;0.57;;;11.70;71.40;10.70;96355.00;;;;4981167;28;20246;-88
2023/12/30 03:56:49;;;;;;;0.53;0.53;;;11.70;71.20;10.70;96357.00;;;;4984878;28;20215;-88
2023/12/30 03:59:16;;;;;;;0.50;0.50;;;11.80;71.10;10.70;96356.00;;;;4985513;28;20222;-87
2023/12/30 04:01:44;;;;;;;0.90;0.60;;;11.80;70.90;10.70;96354.00;;;;4981467;28;20257;-88
2023/12/30 04:04:12;;;;;;;0.47;0.47;;;11.80;70.70;10.80;96352.00;;;;4983270;28;20208;-87
2023/12/30 04:06:40;;;;;;;0.60;0.50;;;11.80;70.50;10.80;96356.00;;;;4976445;28;20274;-87
2023/12/30 04:09:07;;;;;;;0.40;0.40;;;11.90;70.40;10.80;96357.00;;;;4978634;28;20238;-87
2023/12/30 04:11:34;;;;;;;0.60;0.60;;;11.90;70.30;10.80;96360.00;;;;4977628;28;20227;-87
2023/12/30 04:14:01;;;;;;;0.70;0.70;;;11.90;70.20;10.80;96363.00;;;;4975881;28;20733;-88
2023/12/30 04:16:29;;;;;;;0.60;0.60;;;11.90;70.20;10.80;96357.00;;;;4983986;28;20227;-88
2023/12/30 04:18:56;;;;;;;0.40;0.40;;;11.90;70.10;10.80;96361.00;;;;4974571;28;20230;-88
2023/12/30 04:21:24;;;;;;;0.70;0.50;;;11.90;69.90;10.90;96362.00;;;;4990153;28;20764;-88
2023/12/30 04:23:52;;;;;;;0.80;0.60;;;12.00;69.80;10.90;96362.00;;;;4979451;28;20570;-88
2023/12/30 04:26:20;;;;;;;1.13;0.53;;;12.00;69.70;10.90;96364.00;;;;4978400;28;20266;-88
2023/12/30 04:28:48;;;;;;;1.43;0.50;;;12.00;69.70;10.90;96366.00;;;;4977607;28;20227;-88
2023/12/30 04:31:15;;;;;;;0.50;0.50;;;12.00;69.60;10.90;96370.00;;;;4983361;28;20254;-88
2023/12/30 04:33:42;;;;;;;1.07;0.60;;;12.00;69.50;10.90;96374.00;;;;4989369;28;20273;-88
2023/12/30 04:36:09;;;;;;;1.13;0.57;;;12.00;69.50;11.00;96376.00;;;;4984758;28;20279;-89
2023/12/30 04:38:36;;;;;;;0.40;0.40;;;12.00;69.20;11.00;96369.00;;;;4981005;28;20643;-88
2023/12/30 04:41:05;;;;;;;0.50;0.50;;;12.10;69.10;11.00;96381.00;;;;4981334;28;20234;-89
2023/12/30 04:43:32;;;;;;;0.30;0.30;;;12.10;69.00;11.00;96377.00;;;;4978972;28;20745;-88
2023/12/30 04:45:59;;;;;;;0.80;0.70;;;12.10;68.90;11.00;96379.00;;;;4982402;28;20211;-89
2023/12/30 04:48:26;;;;;;;0.40;0.40;;;12.10;68.80;11.00;96373.00;;;;4974139;28;20855;-88
2023/12/30 04:50:54;;;;;;;0.50;0.50;;;12.10;68.70;11.00;96377.00;;;;4977299;28;20250;-88
2023/12/30 04:53:21;;;;;;;0.87;0.60;;;12.10;68.70;11.10;96386.00;;;;4973788;28;20720;-88
2023/12/30 04:55:48;;;;;;;0.60;0.50;;;12.10;68.50;11.10;96383.00;;;;4984163;28;20301;-88
2023/12/30 04:58:17;;;;;;;0.70;0.50;;;12.10;68.40;11.10;96389.00;;;;4983743;28;20278;-88
2023/12/30 05:00:44;;;;;;;0.93;0.40;;;12.20;68.40;11.10;96392.00;;;;4977591;28;20647;-88
2023/12/30 05:03:11;;;;;;;0.50;0.40;;;12.20;68.50;11.10;96390.00;;;;4983852;28;20219;-88
2023/12/30 05:05:38;;;;;;;0.43;0.30;;;12.20;68.30;11.10;96398.00;;;;4984225;28;20304;-88
2023/12/30 05:08:07;;;;;;;0.93;0.63;;;12.20;68.20;11.10;96402.00;;;;4984463;28;20194;-88
2023/12/30 05:10:34;;;;;;;0.50;0.50;;;12.20;68.10;11.10;96401.00;;;;4985979;28;20289;-88
2023/12/30 05:13:02;;;;;;;0.40;0.40;;;12.20;68.10;11.10;96404.00;;;;4972437;28;20302;-88
2023/12/30 05:15:30;;;;;;;2.00;0.50;;;12.20;68.00;11.10;96401.00;;;;4975623;28;20298;-88
2023/12/30 05:17:58;;;;;;;0.37;0.37;;;12.20;68.00;11.10;96397.00;;;;4982674;28;20207;-88
2023/12/30 05:20:25;;;;;;;0.87;0.37;;;12.20;68.10;11.10;96410.00;;;;4975989;28;20226;-88
2023/12/30 05:22:52;;;;;;;1.07;0.40;;;12.20;68.10;11.10;96407.00;;;;4975531;28;20291;-88
2023/12/30 05:25:19;;;;;;;0.73;0.57;;;12.30;68.00;11.10;96406.00;;;;4983399;28;20314;-88
2023/12/30 05:27:47;;;;;;;0.70;0.50;;;12.20;67.90;11.10;96405.00;;;;4975908;28;20226;-88
2023/12/30 05:30:14;;;;;;;0.70;0.70;;;12.20;67.80;11.10;96409.00;;;;4974403;28;20779;-88
2023/12/30 05:32:42;;;;;;;0.60;0.43;;;12.20;67.80;11.10;96404.00;;;;4976912;28;20241;-88
2023/12/30 05:35:09;;;;;;;0.60;0.50;;;12.20;67.70;11.10;96403.00;;;;4979078;28;20638;-88
2023/12/30 05:37:37;;;;;;;0.40;0.40;;;12.20;67.60;11.10;96406.00;;;;4984173;28;20234;-87
2023/12/30 05:40:06;;;;;;;0.33;0.33;;;12.20;68.40;11.10;96398.00;;;;4980661;28;20231;-88
2023/12/30 05:42:33;;;;;;;1.47;0.50;;;12.20;67.70;11.10;96413.00;;;;4975704;28;20225;-88
2023/12/30 05:45:00;;;;;;;1.67;0.40;;;12.20;67.80;11.10;96397.00;;;;4980050;28;20203;-88
2023/12/30 05:47:28;;;;;;;0.50;0.50;;;12.20;67.70;11.10;96415.00;;;;4977604;28;20644;-88
2023/12/30 05:49:56;;;;;;;0.80;0.40;;;12.20;67.80;11.20;96414.00;;;;4992793;28;20622;-88
2023/12/30 05:52:23;;;;;;;0.87;0.47;;;12.20;67.70;11.20;96416.00;;;;4984664;28;20284;-88
2023/12/30 05:54:50;;;;;;;0.50;0.50;;;12.30;67.80;11.20;96410.00;;;;4982574;28;20314;-88
2023/12/30 05:57:17;;;;;;;1.47;0.63;;;12.30;67.80;11.30;96417.00;;;;4982458;28;20722;-88
2023/12/30 05:59:44;;;;;;;0.67;0.67;;;12.30;67.70;11.30;96424.00;;;;4983384;28;20199;-88
2023/12/30 06:02:12;;;;;;;0.53;0.50;;;12.30;67.80;11.30;96427.00;;;;4982310;28;20282;-88
2023/12/30 06:04:41;;;;;;;0.70;0.53;;;12.40;67.90;11.40;96434.00;;;;4976328;28;20196;-88
2023/12/30 06:07:10;;;;;;;1.03;0.50;;;12.40;67.80;11.40;96430.00;;;;4983705;28;20219;-88
2023/12/30 06:09:37;;;;;;;0.47;0.47;;;12.40;67.80;11.40;96435.00;;;;4972539;28;20799;-89
2023/12/30 06:12:05;;;;;;;0.40;0.40;;;12.40;67.80;11.40;96449.00;;;;4971706;28;20227;-88
2023/12/30 06:14:32;;;;;;;0.50;0.50;;;12.50;67.90;11.40;96458.00;;;;4979925;28;20258;-89
2023/12/30 06:16:59;;;;;;;0.93;0.47;;;12.60;67.90;11.50;96443.00;;;;4972750;28;20223;-90
2023/12/30 06:19:26;;;;;;;0.30;0.30;;;12.50;67.90;11.50;96440.00;;;;4975821;28;20231;-88
2023/12/30 06:21:53;;;;;;;0.40;0.40;;;12.60;67.80;11.50;96462.00;;;;4973784;28;20226;-88
2023/12/30 06:24:26;;;;;;;3.40;0.67;;;12.60;67.80;11.60;96458.00;;;;4977229;28;20280;-88
2023/12/30 06:26:53;;;;;;;0.87;0.50;;;12.60;67.70;11.60;96459.00;;;;4978398;28;20256;-88
2023/12/30 06:29:20;;;;;;;1.30;0.40;;;12.70;67.80;11.60;96448.00;;;;4977107;28;20363;-89
2023/12/30 06:31:48;;;;;;;0.47;0.33;;;12.70;67.70;11.60;96450.00;;;;4976935;28;20212;-88
2023/12/30 06:34:15;;;;;;;0.50;0.50;;;12.70;67.60;11.70;96451.00;;;;4977909;28;20314;-88
2023/12/30 06:36:45;;;;;;;0.33;0.33;;;12.70;67.50;11.70;96458.00;;;;4974744;28;20214;-88
2023/12/30 06:39:12;;;;;;;0.43;0.43;;;12.70;67.40;11.70;96464.00;;;;4973806;28;20203;-88
2023/12/30 06:41:41;;;;;;;0.33;0.33;;;12.80;67.40;11.70;96467.00;;;;4979818;28;20210;-88
2023/12/30 06:44:09;;;;;;;0.40;0.30;;;12.80;67.30;11.70;96474.00;;;;4977874;28;20249;-89
2023/12/30 06:46:36;;;;;;;0.73;0.40;;;12.80;67.30;11.80;96479.00;;;;4973084;28;20592;-88
2023/12/30 06:49:03;;;;;;;2.20;0.50;;;12.80;67.20;11.80;96470.00;;;;4975334;28;20554;-88
2023/12/30 06:51:30;;;;;;;0.87;0.47;;;12.80;67.20;11.80;96466.00;;;;4973453;28;20210;-88
2023/12/30 06:53:57;;;;;;;0.50;0.30;;;12.90;67.20;11.80;96468.00;;;;4972166;28;20257;-88
2023/12/30 06:56:25;;;;;;;0.40;0.40;;;12.90;67.10;11.90;96474.00;;;;4976216;28;20270;-88
2023/12/30 06:58:56;;;;;;;0.23;0.20;;;12.90;67.00;11.90;96475.00;;;;4973718;28;20559;-88
2023/12/30 07:01:24;;;;;;;0.53;0.53;;;12.90;66.80;11.80;96471.00;;;;4971583;28;20294;-88
2023/12/30 07:03:51;;;;;;;0.63;0.40;;;12.90;66.80;11.80;96470.00;;;;4972718;28;20195;-88
2023/12/30 07:06:18;;;;;;;3.17;0.70;;;12.90;66.70;11.80;96470.00;;;;4971256;28;20277;-88
2023/12/30 07:08:45;;;;;;;0.63;0.60;;;12.90;66.60;11.80;96472.00;;;;4973268;28;20195;-88
2023/12/30 07:11:13;;;;;;;0.63;0.63;;;12.90;66.60;11.80;96474.00;;;;4974058;28;20203;-88
2023/12/30 07:13:40;;;;;;;1.20;0.63;;;12.90;67.30;11.80;96476.00;;;;4972249;28;20219;-88
2023/12/30 07:16:09;;;;;;;0.60;0.53;;;12.90;66.50;11.80;96479.00;;;;4975900;28;20254;-88
2023/12/30 07:18:36;;;;;;;0.97;0.50;;;12.90;66.50;11.80;96490.00;;;;4981485;28;20217;-88
2023/12/30 07:21:03;;;;;;;0.67;0.40;;;12.80;66.40;11.70;96492.00;;;;4980100;28;20651;-88
2023/12/30 07:23:31;;;;;;;0.40;0.40;;;12.80;66.40;11.70;96496.00;;;;4980278;28;20286;-88
2023/12/30 07:25:58;;;;;;;0.50;0.50;;;12.80;66.50;11.70;96495.00;;;;4968419;28;20227;-88
2023/12/30 07:28:29;;;;;;;0.90;0.67;;;12.80;66.50;11.60;96499.00;;;;4976520;28;20214;-88
2023/12/30 07:30:56;;;;;;;1.33;0.70;;;12.70;66.40;11.60;96494.00;;;;4982576;28;20195;-88
2023/12/30 07:33:25;;;;;;;0.80;0.80;;;12.70;66.60;11.60;96504.00;;;;4974526;28;20269;-88
2023/12/30 07:35:52;;;;;;;1.00;0.60;;;12.70;66.60;11.60;96516.00;;;;4975425;28;20254;-88
2023/12/30 07:38:19;;;;;;;0.50;0.50;;;12.70;66.70;11.50;96518.00;;;;4977129;28;20629;-88
2023/12/30 07:40:46;;;;;;;0.73;0.60;;;12.60;66.70;11.50;96520.00;;;;4977875;28;20295;-88
2023/12/30 07:43:13;;;;;;;1.03;0.80;;;12.60;67.50;11.50;96527.00;;;;4976231;28;20258;-89
2023/12/30 07:45:41;;;;;;;1.10;0.90;;;12.60;66.90;11.50;96530.00;;;;4986658;28;20650;-88
2023/12/30 07:48:08;;;;;;;0.57;0.57;;;12.60;67.00;11.50;96529.00;;;;4985136;28;20757;-88
2023/12/30 07:50:36;;;;;;;1.27;0.63;;;12.60;67.00;11.50;96530.00;;;;4984930;28;20242;-87
2023/12/30 07:53:07;;;;;;;1.70;0.87;;;12.60;67.00;11.50;96524.00;;;;4977810;28;20211;-86
2023/12/30 07:55:34;;;;;;;1.47;1.17;;;12.50;67.10;11.40;96529.00;;;;4983319;28;20331;-86
2023/12/30 07:58:01;;;;;;;1.47;1.03;;;12.50;67.10;11.40;96531.00;;;;4976846;28;20242;-86
2023/12/30 08:00:28;;;;;;;1.30;0.90;;;12.50;67.20;11.40;96536.00;;;;4976433;28;20226;-84
2023/12/30 08:02:55;;;;;;;1.73;1.43;;;12.50;67.30;11.40;96535.00;;;;4974669;28;20326;-84
2023/12/30 08:05:22;;;;;;;1.90;1.20;;;12.50;67.40;11.40;96533.00;;;;4974291;28;20261;-84
2023/12/30 08:07:51;;;;;;;0.93;0.90;;;12.50;67.60;11.40;96530.00;;;;4984052;28;20279;-84
2023/12/30 08:10:18;;;;;;;1.50;0.90;;;12.50;67.70;11.50;96535.00;;;;4977012;28;20226;-84
2023/12/30 08:12:45;;;;;;;0.90;0.90;;;12.50;67.70;11.50;96535.00;;;;4986860;28;20628;-84
2023/12/30 08:15:13;;;;;;;1.20;0.97;;;12.60;67.80;11.50;96538.00;;;;4977936;28;20298;-84
2023/12/30 08:17:40;;;;;;;0.60;0.60;;;12.60;67.60;11.50;96534.00;;;;4976417;28;20195;-84
2023/12/30 08:20:10;;;;;;;1.47;0.70;;;12.60;67.60;11.50;96540.00;;;;4978000;28;20729;-84
2023/12/30 08:22:37;;;;;;;1.23;1.00;;;12.60;67.50;11.50;96535.00;;;;4978994;28;20266;-84
2023/12/30 08:25:07;;;;;;;2.13;1.13;;;12.70;67.50;11.50;96535.00;;;;4980324;28;20238;-82
2023/12/30 08:27:34;;;;;;;0.80;0.80;;;12.70;67.70;11.60;96532.00;;;;4980501;28;20343;-84
2023/12/30 08:30:02;;;;;;;1.27;1.00;;;12.70;67.80;11.60;96540.00;;;;4978575;28;20223;-84
2023/12/30 08:32:32;;;;;;;2.80;1.10;;;12.70;67.90;11.60;96541.00;;;;4976421;28;20254;-82
2023/12/30 08:35:02;;;;;;;1.73;1.07;;;12.70;68.10;11.70;96544.00;;;;4968958;28;20307;-84
2023/12/30 08:37:30;;;;;;;1.73;0.80;;;12.80;68.30;11.80;96543.00;;;;4976667;28;20200;-84
2023/12/30 08:39:57;;;;;;;1.57;1.40;;;12.80;68.40;11.80;96540.00;;;;4975841;28;20238;-84
2023/12/30 08:42:34;;;;;;;1.60;1.50;;;12.90;68.40;11.90;96537.00;;;;4975951;28;20227;-84
2023/12/30 08:45:01;;;;;;;2.03;1.40;;;13.00;68.60;12.00;96534.00;;;;4976426;28;20207;-84
2023/12/30 08:47:28;;;;;;;1.20;1.10;;;13.10;68.80;12.10;96542.00;;;;4975831;28;20238;-85
2023/12/30 08:49:55;;;;;;;1.60;1.50;;;13.10;68.80;12.20;96544.00;;;;4978602;28;20203;-85
2023/12/30 08:52:23;;;;;;;1.77;1.40;;;13.20;68.80;12.30;96550.00;;;;4974195;28;20639;-84
2023/12/30 08:54:50;;;;;;;2.13;1.57;;;13.30;68.90;12.40;96538.00;;;;4990214;28;20243;-84
2023/12/30 08:57:17;;;;;;;1.70;1.60;;;13.40;68.80;12.50;96548.00;;;;4974418;28;20272;-84
2023/12/30 08:59:47;;;;;;;1.63;1.53;;;13.50;68.90;12.60;96553.00;;;;4976208;28;20638;-86
2023/12/30 09:02:14;;;;;;;1.80;1.70;;;13.60;68.80;12.70;96556.00;;;;4974274;28;20210;-87
2023/12/30 09:04:41;;;;;;;1.67;1.47;;;13.70;68.90;12.90;96561.00;;;;4974793;28;20262;-86
2023/12/30 09:07:08;;;;;;;1.57;1.47;;;13.80;68.70;13.00;96558.00;;;;4975515;28;20223;-83
2023/12/30 09:09:36;;;;;;;1.43;1.33;;;13.90;68.50;13.10;96568.00;;;;4976274;28;20209;-83
2023/12/30 09:12:04;;;;;;;2.20;1.50;;;14.00;69.10;13.20;96560.00;;;;4977208;28;20195;-82
2023/12/30 09:14:31;;;;;;;1.20;1.00;;;14.10;68.30;13.30;96564.00;;;;4971660;28;20726;-82
2023/12/30 09:16:59;;;;;;;1.57;1.40;;;14.20;68.10;13.40;96560.00;;;;4978003;28;20302;-84
2023/12/30 09:19:26;;;;;;;1.63;1.53;;;14.30;67.80;13.50;96569.00;;;;4979049;28;20203;-82
2023/12/30 09:21:54;;;;;;;1.13;1.03;;;14.40;67.70;13.60;96577.00;;;;4977533;28;20287;-81
2023/12/30 09:24:22;;;;;;;1.43;1.33;;;14.50;67.70;13.60;96559.00;;;;4979565;28;20566;-81
2023/12/30 09:26:50;;;;;;;1.70;1.43;;;14.50;67.40;13.70;96560.00;;;;4981055;28;20250;-82
2023/12/30 09:29:18;;;;;;;1.30;1.20;;;14.60;67.30;13.80;96577.00;;;;4979782;28;20196;-81
2023/12/30 09:31:45;;;;;;;2.13;1.40;;;14.70;67.20;13.80;96568.00;;;;4980835;28;20195;-83
2023/12/30 09:34:14;;;;;;;1.10;1.10;;;14.80;67.90;13.90;96578.00;;;;4982179;28;20227;-83
2023/12/30 09:36:41;;;;;;;1.10;1.10;;;14.80;67.70;13.90;96577.00;;;;4975680;28;20253;-83
2023/12/30 09:39:11;;;;;;;1.20;1.10;;;14.90;66.80;14.00;96578.00;;;;4975888;28;20226;-82
2023/12/30 09:41:41;;;;;;;1.33;1.23;;;14.90;66.70;14.00;96584.00;;;;4977564;28;20254;-82
2023/12/30 09:44:13;;;;;;;1.33;1.10;;;15.00;66.40;14.10;96576.00;;;;4984791;28;20254;-83
2023/12/30 09:46:41;;;;;;;1.43;0.80;;;15.10;66.50;14.20;96570.00;;;;4984737;28;20314;-82
2023/12/30 09:49:09;;;;;;;2.17;1.03;;;15.10;66.70;14.30;96572.00;;;;4981076;28;20218;-82
2023/12/30 09:51:38;;;;;;;1.30;1.20;;;15.20;66.70;14.40;96570.00;;;;4977773;28;20195;-83
2023/12/30 09:54:05;;;;;;;1.33;1.23;;;15.30;66.70;14.60;96559.00;;;;4990761;28;20286;-83
2023/12/30 09:56:33;;;;;;;1.20;1.10;;;15.50;66.70;14.70;96561.00;;;;4974978;28;20257;-83
2023/12/30 09:59:01;;;;;;;0.90;0.90;;;15.60;66.30;14.90;96570.00;;;;4970826;28;20682;-85
2023/12/30 10:01:30;;;;;;;0.80;0.80;;;15.80;66.40;15.10;96567.00;;;;4983080;28;20249;-84
2023/12/30 10:03:57;;;;;;;0.70;0.70;;;15.90;66.30;15.20;96561.00;;;;4986659;28;20277;-83
2023/12/30 10:06:26;;;;;;;1.03;0.83;;;16.10;66.20;15.40;96562.00;;;;4985488;28;20273;-84
2023/12/30 10:08:56;;;;;;;1.00;1.00;;;16.30;65.90;15.60;96555.00;;;;4977537;28;20264;-83
2023/12/30 10:11:23;;;;;;;0.70;0.70;;;16.50;65.30;15.80;96557.00;;;;4975299;28;20630;-83
2023/12/30 10:13:53;;;;;;;0.80;0.80;;;16.70;65.10;15.90;96563.00;;;;4994036;28;20241;-83
2023/12/30 10:16:21;;;;;;;1.53;0.70;;;16.90;64.50;16.00;96557.00;;;;4987647;28;20231;-83
2023/12/30 10:18:48;;;;;;;0.90;0.90;;;17.00;64.00;16.10;96555.00;;;;4974126;28;20215;-83
2023/12/30 10:21:18;;;;;;;0.50;0.50;;;17.10;63.60;16.20;96562.00;;;;4982278;28;20250;-83
2023/12/30 10:23:48;;;;;;;1.27;0.80;;;17.20;62.90;16.30;96556.00;;;;4975267;28;20203;-83
2023/12/30 10:26:16;;;;;;;0.60;0.60;;;17.30;62.70;16.40;96555.00;;;;4983103;28;20231;-83
2023/12/30 10:28:44;;;;;;;1.07;0.73;;;17.40;62.00;16.40;96555.00;;;;4966692;28;20208;-83
2023/12/30 10:31:11;;;;;;;0.87;0.87;;;17.40;61.60;16.40;96550.00;;;;4974271;28;20188;-83
2023/12/30 10:33:41;;;;;;;1.33;0.70;;;17.40;61.40;16.50;96545.00;;;;4974434;28;20687;-83
2023/12/30 10:36:09;;;;;;;0.83;0.80;;;17.50;61.30;16.50;96540.00;;;;4974279;28;20703;-84
2023/12/30 10:38:37;;;;;;;0.93;0.67;;;17.50;61.10;16.50;96555.00;;;;4973783;28;20230;-84
2023/12/30 10:41:05;;;;;;;1.50;0.70;;;17.60;60.60;16.60;96552.00;;;;4973618;28;20245;-83
2023/12/30 10:43:34;;;;;;;1.10;1.00;;;17.60;60.40;16.60;96545.00;;;;4973382;28;20199;-84
2023/12/30 10:46:03;;;;;;;0.97;0.97;;;17.60;60.20;16.60;96556.00;;;;4972848;28;20305;-83
2023/12/30 10:48:35;;;;;;;0.67;0.67;;;17.60;60.10;16.60;96550.00;;;;4991566;28;20203;-82
2023/12/30 10:51:03;;;;;;;0.70;0.60;;;17.60;59.80;16.60;96550.00;;;;4996080;28;20230;-82
2023/12/30 10:53:38;;;;;;;0.60;0.60;;;17.60;59.60;16.60;96538.00;;;;4978842;28;20237;-82
2023/12/30 10:56:10;;;;;;;0.70;0.50;;;17.60;59.50;16.50;96524.00;;;;4975626;28;20214;-82